Main page
METAR-TAF:

METAR-TAF

Airports :

Crystal Airport

Minneapolis / Crystal, Minnesota, United States

latitude: 45-03-45N, longitude: 093-21-03W, elevation: 866 ft

Current weather observation

The report was made 23 minutes ago, at 10:53 UTC
Wind 10 mph from the South/Southwest
Temperature 50°F
Humidity 76%
Pressure 29.75 in. Hg
Visibility: 10 miles
Clear sky

METAR: KMIC 251053Z 20009KT 10SM CLR 10/06 A2975 RMK AO2 SLP075 T01000061 $

Time: 06:16 (11:16 UTC)


TAF: missing

Weather observations and forecasts of more than 4000 airports (METAR and TAF reports).

The available stations are represented by yellow and red dots on the map.

Hover mouse over dot to see the name of the station.

Then click to see weather observations and forecasts.

To change the map : click on the green buttons with a black cross to zoom in, on the green button with a dash to zoom out, or on the green arrows for adjacent maps.


METAR-TAF: